Time;durP1;ratioP1;P1;durP2;ratioP2;P2;SDS_P1;SDS_P2;PMS_P1;PMS_P2;Temp;Humidity;BMP_temperature;BMP_pressure;BME280_temperature;BME280_humidity;BME280_pressure;Samples;Min_cycle;Max_cycle;Signal;HPM_P1;HPM_P2
2021/06/07 00:00:57;;;;;;;10.10;9.00;;;;;;;;;;4972776;28;20027;-81
2021/06/07 00:03:23;;;;;;;10.70;7.55;;;;;;;;;;4970134;28;20015;-80
2021/06/07 00:05:48;;;;;;;10.25;7.20;;;;;;;;;;4965202;28;21588;-80
2021/06/07 00:08:13;;;;;;;10.57;8.50;;;;;;;;;;4968800;28;20038;-80
2021/06/07 00:10:39;;;;;;;9.88;7.88;;;;;;;;;;4982443;28;20042;-80
2021/06/07 00:13:06;;;;;;;9.23;7.50;;;;;;;;;;4985146;28;20549;-80
2021/06/07 00:15:33;;;;;;;18.17;9.98;;;;;;;;;;4967370;28;20038;-80
2021/06/07 00:17:58;;;;;;;10.43;8.63;;;;;;;;;;4983800;28;20098;-81
2021/06/07 00:20:43;;;;;;;11.50;8.30;;;;;;;;;;4966551;28;20065;-80
2021/06/07 00:23:10;;;;;;;14.20;10.13;;;;;;;;;;4983609;28;20583;-80
2021/06/07 00:25:36;;;;;;;14.93;10.30;;;;;;;;;;4964666;28;20366;-80
2021/06/07 00:28:01;;;;;;;10.55;8.40;;;;;;;;;;4983323;28;20126;-80
2021/06/07 00:30:26;;;;;;;11.13;9.48;;;;;;;;;;4950077;28;20027;-80
2021/06/07 00:32:52;;;;;;;11.88;9.32;;;;;;;;;;4949989;28;20023;-80
2021/06/07 00:35:21;;;;;;;11.18;7.95;;;;;;;;;;4943648;29;20035;-80
2021/06/07 00:37:46;;;;;;;12.38;8.50;;;;;;;;;;4981265;28;20027;-80
2021/06/07 00:40:12;;;;;;;9.43;8.43;;;;;;;;;;4982604;28;20018;-80
2021/06/07 00:42:37;;;;;;;11.07;8.52;;;;;;;;;;4966532;28;20632;-80
2021/06/07 00:45:04;;;;;;;14.15;9.18;;;;;;;;;;4966875;28;20042;-80
2021/06/07 00:47:30;;;;;;;11.43;8.88;;;;;;;;;;4965244;28;20023;-80
2021/06/07 00:49:55;;;;;;;8.73;7.82;;;;;;;;;;4964208;28;20062;-80
2021/06/07 00:52:20;;;;;;;13.68;10.40;;;;;;;;;;4949572;28;20031;-80
2021/06/07 00:54:45;;;;;;;10.35;9.20;;;;;;;;;;4967056;28;20043;-80
2021/06/07 00:57:11;;;;;;;13.02;9.77;;;;;;;;;;4964463;28;20108;-80
2021/06/07 00:59:36;;;;;;;11.70;8.80;;;;;;;;;;4960607;28;20444;-80
2021/06/07 01:02:01;;;;;;;10.13;7.82;;;;;;;;;;4965239;28;20058;-81
2021/06/07 01:04:26;;;;;;;11.15;8.80;;;;;;;;;;4984099;28;20033;-80
2021/06/07 01:06:52;;;;;;;11.00;9.35;;;;;;;;;;4981696;28;20019;-80
2021/06/07 01:09:17;;;;;;;11.25;9.35;;;;;;;;;;4966929;28;20022;-80
2021/06/07 01:11:42;;;;;;;11.23;9.73;;;;;;;;;;4982962;28;20359;-80
2021/06/07 01:14:07;;;;;;;13.98;9.98;;;;;;;;;;4983375;28;20027;-80
2021/06/07 01:16:33;;;;;;;15.60;11.90;;;;;;;;;;4980778;28;20022;-80
2021/06/07 01:18:58;;;;;;;13.52;11.15;;;;;;;;;;4964672;29;20027;-80
2021/06/07 01:21:24;;;;;;;13.35;11.18;;;;;;;;;;4972423;28;20029;-80
2021/06/07 01:23:51;;;;;;;13.60;11.32;;;;;;;;;;4966086;28;20356;-80
2021/06/07 01:26:17;;;;;;;12.02;10.82;;;;;;;;;;4981000;28;20072;-80
2021/06/07 01:28:43;;;;;;;13.57;11.65;;;;;;;;;;4966147;28;20055;-80
2021/06/07 01:31:11;;;;;;;14.65;10.60;;;;;;;;;;4963731;28;20022;-80
2021/06/07 01:33:36;;;;;;;12.30;9.70;;;;;;;;;;4965746;28;20031;-79
2021/06/07 01:36:03;;;;;;;13.32;9.38;;;;;;;;;;4983046;28;20361;-79
2021/06/07 01:38:28;;;;;;;12.00;9.15;;;;;;;;;;4965874;28;20033;-80
2021/06/07 01:40:58;;;;;;;12.13;9.18;;;;;;;;;;4973954;28;20026;-80
2021/06/07 01:43:25;;;;;;;13.70;10.15;;;;;;;;;;4983208;28;20027;-80
2021/06/07 01:45:50;;;;;;;12.98;10.80;;;;;;;;;;4965468;28;20030;-80
2021/06/07 01:48:16;;;;;;;15.35;11.05;;;;;;;;;;4982785;28;20094;-80
2021/06/07 01:50:42;;;;;;;15.73;14.07;;;;;;;;;;4966463;28;20416;-80
2021/06/07 01:53:08;;;;;;;15.75;11.68;;;;;;;;;;4983145;28;20026;-80
2021/06/07 01:55:45;;;;;;;17.85;15.10;;;;;;;;;;4965664;28;20022;-80
2021/06/07 01:58:12;;;;;;;17.35;15.45;;;;;;;;;;4983649;28;20054;-80
2021/06/07 02:00:37;;;;;;;22.42;16.83;;;;;;;;;;4964644;28;20027;-80
2021/06/07 02:03:03;;;;;;;17.10;15.30;;;;;;;;;;4984517;28;20029;-80
2021/06/07 02:05:29;;;;;;;16.80;15.10;;;;;;;;;;4965780;28;20022;-80
2021/06/07 02:07:56;;;;;;;15.98;14.23;;;;;;;;;;4972239;28;20406;-80
2021/06/07 02:10:23;;;;;;;15.43;12.30;;;;;;;;;;4984794;28;20014;-81
2021/06/07 02:12:48;;;;;;;15.70;13.32;;;;;;;;;;4983133;28;20026;-80
2021/06/07 02:15:14;;;;;;;18.90;13.77;;;;;;;;;;4976557;28;20657;-80
2021/06/07 02:17:40;;;;;;;15.95;14.02;;;;;;;;;;4983012;28;20471;-80
2021/06/07 02:20:08;;;;;;;18.33;16.35;;;;;;;;;;4964162;28;20069;-80
2021/06/07 02:22:38;;;;;;;16.02;13.30;;;;;;;;;;4946938;28;20533;-80
2021/06/07 02:25:04;;;;;;;19.48;17.00;;;;;;;;;;4961936;29;20034;-80
2021/06/07 02:27:29;;;;;;;21.77;17.30;;;;;;;;;;4978930;28;20027;-80
2021/06/07 02:29:55;;;;;;;25.05;18.33;;;;;;;;;;4981963;28;20466;-80
2021/06/07 02:32:20;;;;;;;18.63;16.83;;;;;;;;;;4964760;28;20077;-81
2021/06/07 02:34:45;;;;;;;19.95;17.88;;;;;;;;;;4963478;28;20023;-81
2021/06/07 02:37:10;;;;;;;22.55;19.38;;;;;;;;;;4964297;28;20078;-79
2021/06/07 02:39:36;;;;;;;23.17;20.60;;;;;;;;;;4948883;28;20081;-80
2021/06/07 02:42:02;;;;;;;23.23;19.45;;;;;;;;;;4963573;28;20037;-80
2021/06/07 02:44:27;;;;;;;21.70;18.40;;;;;;;;;;4965464;28;20456;-81
2021/06/07 02:46:53;;;;;;;22.50;16.70;;;;;;;;;;4980684;28;20015;-80
2021/06/07 02:49:18;;;;;;;19.15;17.13;;;;;;;;;;4965822;28;20022;-81
2021/06/07 02:51:43;;;;;;;22.35;19.38;;;;;;;;;;4959764;28;20020;-81
2021/06/07 02:54:09;;;;;;;22.27;16.88;;;;;;;;;;4960321;28;20114;-80
2021/06/07 02:56:34;;;;;;;22.88;17.98;;;;;;;;;;4948791;28;20018;-80
2021/06/07 02:59:00;;;;;;;16.85;15.15;;;;;;;;;;4948672;28;20037;-80
2021/06/07 03:01:25;;;;;;;20.95;15.20;;;;;;;;;;4973439;28;20454;-80
2021/06/07 03:03:51;;;;;;;18.27;16.08;;;;;;;;;;4980435;28;20037;-80
2021/06/07 03:06:16;;;;;;;23.83;19.15;;;;;;;;;;4977680;28;20441;-80
2021/06/07 03:08:41;;;;;;;23.02;19.35;;;;;;;;;;4972549;28;20019;-81
2021/06/07 03:11:08;;;;;;;25.30;18.92;;;;;;;;;;4950719;28;20031;-80
2021/06/07 03:13:34;;;;;;;22.52;19.98;;;;;;;;;;4968668;28;20516;-80
2021/06/07 03:15:59;;;;;;;21.38;18.73;;;;;;;;;;4969224;28;20022;-81
2021/06/07 03:18:25;;;;;;;20.00;17.90;;;;;;;;;;4984014;28;20393;-81
2021/06/07 03:20:51;;;;;;;21.30;17.73;;;;;;;;;;4964634;28;20027;-80
2021/06/07 03:23:20;;;;;;;20.98;17.33;;;;;;;;;;4980778;28;20025;-80
2021/06/07 03:25:47;;;;;;;18.70;16.67;;;;;;;;;;4966971;28;20111;-80
2021/06/07 03:28:13;;;;;;;21.02;16.75;;;;;;;;;;4968552;28;20047;-80
2021/06/07 03:30:38;;;;;;;19.80;16.13;;;;;;;;;;4983511;28;20041;-80
2021/06/07 03:33:05;;;;;;;17.90;15.85;;;;;;;;;;4967519;28;20033;-81
2021/06/07 03:35:31;;;;;;;20.80;15.25;;;;;;;;;;4967921;28;20065;-80
2021/06/07 03:37:56;;;;;;;17.70;14.82;;;;;;;;;;4980644;28;20022;-80
2021/06/07 03:40:23;;;;;;;15.10;13.45;;;;;;;;;;4982803;28;20077;-81
2021/06/07 03:42:49;;;;;;;20.30;14.90;;;;;;;;;;4984668;28;20030;-80
2021/06/07 03:45:14;;;;;;;18.35;14.15;;;;;;;;;;4968368;28;20071;-80
2021/06/07 03:47:40;;;;;;;16.58;14.38;;;;;;;;;;4967461;28;20033;-81
2021/06/07 03:50:06;;;;;;;20.08;16.38;;;;;;;;;;4969261;28;20506;-80
2021/06/07 03:52:31;;;;;;;18.52;16.02;;;;;;;;;;4967848;28;20031;-80
2021/06/07 03:54:56;;;;;;;15.82;14.07;;;;;;;;;;4952658;28;20045;-80
2021/06/07 03:57:21;;;;;;;15.95;13.75;;;;;;;;;;4945990;28;20030;-80
2021/06/07 03:59:47;;;;;;;16.77;12.63;;;;;;;;;;4982497;28;20441;-80
2021/06/07 04:02:13;;;;;;;14.88;12.25;;;;;;;;;;4954926;28;20030;-80
2021/06/07 04:04:40;;;;;;;15.80;14.20;;;;;;;;;;4990878;28;20086;-80
2021/06/07 04:07:06;;;;;;;16.00;14.30;;;;;;;;;;4990001;28;20018;-81
2021/06/07 04:09:31;;;;;;;18.92;15.02;;;;;;;;;;4981714;28;20015;-82
2021/06/07 04:11:56;;;;;;;17.92;14.80;;;;;;;;;;4992624;28;20023;-82
2021/06/07 04:14:22;;;;;;;19.77;17.02;;;;;;;;;;4993893;28;20023;-81
2021/06/07 04:16:47;;;;;;;18.67;15.68;;;;;;;;;;4974683;28;20574;-82
2021/06/07 04:19:12;;;;;;;21.95;17.90;;;;;;;;;;4977508;28;20061;-81
2021/06/07 04:21:38;;;;;;;23.65;18.30;;;;;;;;;;4971894;28;20026;-80
2021/06/07 04:24:04;;;;;;;26.98;21.48;;;;;;;;;;4973373;28;20047;-81
2021/06/07 04:26:29;;;;;;;27.45;22.17;;;;;;;;;;4972442;28;20054;-81
2021/06/07 04:28:54;;;;;;;28.05;22.67;;;;;;;;;;4959464;28;20050;-82
2021/06/07 04:31:20;;;;;;;28.13;24.00;;;;;;;;;;4984813;28;20023;-82
2021/06/07 04:33:45;;;;;;;25.30;22.52;;;;;;;;;;4994422;28;20027;-82
2021/06/07 04:36:10;;;;;;;26.25;21.50;;;;;;;;;;4994074;28;20018;-81
2021/06/07 04:38:35;;;;;;;22.80;19.80;;;;;;;;;;4977287;28;20086;-81
2021/06/07 04:41:00;;;;;;;24.85;20.52;;;;;;;;;;4977112;28;20018;-81
2021/06/07 04:43:26;;;;;;;26.67;19.85;;;;;;;;;;4972214;28;20049;-81
2021/06/07 04:45:51;;;;;;;23.70;18.42;;;;;;;;;;4990854;28;20034;-81
2021/06/07 04:48:16;;;;;;;22.25;17.55;;;;;;;;;;4962442;28;20026;-82
2021/06/07 04:50:42;;;;;;;23.38;18.70;;;;;;;;;;4975167;28;20172;-82
2021/06/07 04:53:09;;;;;;;20.38;16.88;;;;;;;;;;4967982;29;20031;-82
2021/06/07 04:55:36;;;;;;;16.25;14.40;;;;;;;;;;4969377;28;20023;-80
2021/06/07 04:58:27;;;;;;;14.60;12.55;;;;;;;;;;4982348;28;20093;-80
2021/06/07 05:00:53;;;;;;;14.38;11.80;;;;;;;;;;4954079;28;20062;-80
2021/06/07 05:03:19;;;;;;;12.35;10.45;;;;;;;;;;4980911;28;20019;-80
2021/06/07 05:05:45;;;;;;;11.15;9.50;;;;;;;;;;4949693;28;20086;-80
2021/06/07 05:08:10;;;;;;;11.30;8.45;;;;;;;;;;4963029;28;20042;-80
2021/06/07 05:10:36;;;;;;;11.23;9.07;;;;;;;;;;4981149;28;20014;-81
2021/06/07 05:13:01;;;;;;;12.70;9.68;;;;;;;;;;4956101;28;20030;-82
2021/06/07 05:15:27;;;;;;;10.60;9.48;;;;;;;;;;4988243;28;20033;-84
2021/06/07 05:17:52;;;;;;;12.80;9.38;;;;;;;;;;4981899;28;20035;-82
2021/06/07 05:20:19;;;;;;;12.10;9.27;;;;;;;;;;4980827;28;20031;-80
2021/06/07 05:22:46;;;;;;;10.68;8.93;;;;;;;;;;4996488;28;20025;-82
2021/06/07 05:25:12;;;;;;;10.90;8.82;;;;;;;;;;4992261;28;20014;-81
2021/06/07 05:27:37;;;;;;;8.98;7.90;;;;;;;;;;4974541;28;20023;-81
2021/06/07 05:30:04;;;;;;;9.68;8.63;;;;;;;;;;4987092;28;20058;-80
2021/06/07 05:32:29;;;;;;;9.70;7.82;;;;;;;;;;4958499;28;20360;-80
2021/06/07 05:34:55;;;;;;;9.38;8.05;;;;;;;;;;4973604;28;20031;-80
2021/06/07 05:37:20;;;;;;;8.45;7.55;;;;;;;;;;4941013;28;20409;-80
2021/06/07 05:39:45;;;;;;;13.52;9.13;;;;;;;;;;4978670;28;20019;-80
2021/06/07 05:42:11;;;;;;;10.88;8.40;;;;;;;;;;4977888;28;20024;-81
2021/06/07 05:44:36;;;;;;;10.13;8.68;;;;;;;;;;4974666;28;20627;-78
2021/06/07 05:47:02;;;;;;;12.55;8.38;;;;;;;;;;4963876;28;20023;-78
2021/06/07 05:49:27;;;;;;;11.88;7.78;;;;;;;;;;4957570;28;20038;-80
2021/06/07 05:51:52;;;;;;;12.25;8.48;;;;;;;;;;4957404;28;20024;-79
2021/06/07 05:54:18;;;;;;;14.10;9.38;;;;;;;;;;4972379;28;20118;-80
2021/06/07 05:56:43;;;;;;;11.07;8.70;;;;;;;;;;4940141;28;20041;-79
2021/06/07 05:59:08;;;;;;;13.90;9.07;;;;;;;;;;4957657;28;20019;-79
2021/06/07 06:01:34;;;;;;;11.32;8.50;;;;;;;;;;4954652;28;20082;-80
2021/06/07 06:04:00;;;;;;;12.10;8.45;;;;;;;;;;4954235;28;20018;-79
2021/06/07 06:06:25;;;;;;;9.35;8.07;;;;;;;;;;4956479;28;20423;-79
2021/06/07 06:08:51;;;;;;;13.18;7.60;;;;;;;;;;4975949;28;20081;-80
2021/06/07 06:11:17;;;;;;;10.02;7.40;;;;;;;;;;4961700;28;20027;-80
2021/06/07 06:13:42;;;;;;;10.68;6.90;;;;;;;;;;4959383;28;20135;-81
2021/06/07 06:16:08;;;;;;;12.07;7.53;;;;;;;;;;4949512;28;20077;-81
2021/06/07 06:18:35;;;;;;;9.18;8.27;;;;;;;;;;4967611;28;20038;-80
2021/06/07 06:21:00;;;;;;;12.25;9.05;;;;;;;;;;4971225;28;20042;-81
2021/06/07 06:23:25;;;;;;;12.63;9.10;;;;;;;;;;4989032;28;20030;-81
2021/06/07 06:25:51;;;;;;;16.40;9.77;;;;;;;;;;4970114;28;20553;-81
2021/06/07 06:28:16;;;;;;;12.13;9.68;;;;;;;;;;4979290;28;20833;-80
2021/06/07 06:30:41;;;;;;;11.80;10.07;;;;;;;;;;4952910;28;20031;-81
2021/06/07 06:33:07;;;;;;;12.00;10.75;;;;;;;;;;4970022;28;20026;-81
2021/06/07 06:35:32;;;;;;;13.18;11.82;;;;;;;;;;4954657;28;20031;-81
2021/06/07 06:37:59;;;;;;;13.48;11.00;;;;;;;;;;4972896;28;20553;-79
2021/06/07 06:40:26;;;;;;;13.20;11.00;;;;;;;;;;4957170;28;20027;-79
2021/06/07 06:42:52;;;;;;;11.88;10.68;;;;;;;;;;4974718;28;20171;-80
2021/06/07 06:45:18;;;;;;;13.10;10.70;;;;;;;;;;4962719;28;20023;-80
2021/06/07 06:47:44;;;;;;;12.25;10.75;;;;;;;;;;4975559;28;20027;-80
2021/06/07 06:50:10;;;;;;;11.85;10.55;;;;;;;;;;4960631;28;20015;-79
2021/06/07 06:52:36;;;;;;;12.85;9.73;;;;;;;;;;4954156;28;20037;-80
2021/06/07 06:55:02;;;;;;;11.43;8.88;;;;;;;;;;4956683;28;20039;-79
2021/06/07 06:57:27;;;;;;;13.98;10.00;;;;;;;;;;4975049;28;20066;-79
2021/06/07 06:59:53;;;;;;;13.60;10.70;;;;;;;;;;4981643;28;20022;-80
2021/06/07 07:02:19;;;;;;;11.88;10.65;;;;;;;;;;4975777;28;20031;-80
2021/06/07 07:04:44;;;;;;;15.02;11.27;;;;;;;;;;4965830;28;20015;-79
2021/06/07 07:07:10;;;;;;;16.63;12.25;;;;;;;;;;4978270;28;20019;-80
2021/06/07 07:09:35;;;;;;;17.50;12.85;;;;;;;;;;4965652;28;20025;-79
2021/06/07 07:12:00;;;;;;;15.95;12.93;;;;;;;;;;4968207;28;20035;-80
2021/06/07 07:14:26;;;;;;;16.27;13.50;;;;;;;;;;4976274;28;20023;-79
2021/06/07 07:16:52;;;;;;;17.55;12.75;;;;;;;;;;4965730;28;20373;-79
2021/06/07 07:19:20;;;;;;;13.55;11.50;;;;;;;;;;4972635;28;20018;-79
2021/06/07 07:21:45;;;;;;;11.25;9.93;;;;;;;;;;4959984;28;20026;-79
2021/06/07 07:24:10;;;;;;;12.55;9.43;;;;;;;;;;4975456;28;20016;-79
2021/06/07 07:26:36;;;;;;;9.95;7.10;;;;;;;;;;4958395;28;20107;-80
2021/06/07 07:29:01;;;;;;;7.50;5.85;;;;;;;;;;4946197;28;20099;-79
2021/06/07 07:31:26;;;;;;;7.07;5.40;;;;;;;;;;4964486;28;20113;-79
2021/06/07 07:33:52;;;;;;;8.40;4.57;;;;;;;;;;4978343;28;20051;-80
2021/06/07 07:36:17;;;;;;;6.05;3.92;;;;;;;;;;4975548;28;20034;-80
2021/06/07 07:38:42;;;;;;;4.72;3.67;;;;;;;;;;4977474;28;20106;-79
2021/06/07 07:41:07;;;;;;;5.05;3.20;;;;;;;;;;4972511;28;20019;-80
2021/06/07 07:43:33;;;;;;;9.40;3.00;;;;;;;;;;4975273;28;20033;-80
2021/06/07 07:45:59;;;;;;;3.60;2.10;;;;;;;;;;4947070;28;20038;-79
2021/06/07 07:48:24;;;;;;;3.60;1.60;;;;;;;;;;4970697;28;20098;-80
2021/06/07 07:50:51;;;;;;;2.83;1.45;;;;;;;;;;4964036;28;20110;-80
2021/06/07 07:53:16;;;;;;;3.83;1.90;;;;;;;;;;4975245;28;20018;-79
2021/06/07 07:55:42;;;;;;;3.53;1.50;;;;;;;;;;4975796;28;20381;-79
2021/06/07 07:58:10;;;;;;;2.70;1.38;;;;;;;;;;4967490;28;20058;-79
2021/06/07 08:00:37;;;;;;;5.13;1.60;;;;;;;;;;4955474;28;20025;-79
2021/06/07 08:03:03;;;;;;;2.53;1.40;;;;;;;;;;4971139;28;20037;-80
2021/06/07 08:05:29;;;;;;;2.85;1.75;;;;;;;;;;4972046;28;20019;-79
2021/06/07 08:07:55;;;;;;;3.97;1.55;;;;;;;;;;4957750;28;20062;-79
2021/06/07 08:10:20;;;;;;;2.80;1.60;;;;;;;;;;4970232;28;20042;-80
2021/06/07 08:12:46;;;;;;;5.30;1.50;;;;;;;;;;4953852;28;20019;-78
2021/06/07 08:15:11;;;;;;;3.38;2.13;;;;;;;;;;4960366;28;20050;-79
2021/06/07 08:17:37;;;;;;;2.58;1.70;;;;;;;;;;4977290;28;20019;-79
2021/06/07 08:20:04;;;;;;;3.80;1.80;;;;;;;;;;4977126;28;20030;-80
2021/06/07 08:22:29;;;;;;;7.43;1.67;;;;;;;;;;4976171;28;20026;-79
2021/06/07 08:24:54;;;;;;;5.43;2.22;;;;;;;;;;4959070;28;20019;-79
2021/06/07 08:27:19;;;;;;;3.00;1.75;;;;;;;;;;4943490;28;20027;-79
2021/06/07 08:29:45;;;;;;;6.85;1.88;;;;;;;;;;4977320;28;20042;-79
2021/06/07 08:32:10;;;;;;;5.53;2.10;;;;;;;;;;4958272;28;20155;-79
2021/06/07 08:34:35;;;;;;;4.55;2.20;;;;;;;;;;4972626;28;20023;-79
2021/06/07 08:37:01;;;;;;;6.75;2.25;;;;;;;;;;4963658;28;20018;-79
2021/06/07 08:39:26;;;;;;;5.30;2.20;;;;;;;;;;4970985;28;20468;-79
2021/06/07 08:41:51;;;;;;;5.78;2.30;;;;;;;;;;4970819;28;20026;-79
2021/06/07 08:44:17;;;;;;;4.60;1.73;;;;;;;;;;4973049;28;20139;-79
2021/06/07 08:46:44;;;;;;;5.45;1.63;;;;;;;;;;4970531;28;20094;-79
2021/06/07 08:49:10;;;;;;;3.42;1.45;;;;;;;;;;4971070;28;20360;-79
2021/06/07 08:51:35;;;;;;;6.32;1.58;;;;;;;;;;4973760;28;20146;-80
2021/06/07 08:54:00;;;;;;;7.28;1.73;;;;;;;;;;4977190;28;20022;-80
2021/06/07 08:56:26;;;;;;;6.88;1.98;;;;;;;;;;4957794;28;20041;-79
2021/06/07 08:58:51;;;;;;;4.28;1.70;;;;;;;;;;4957404;28;20035;-79
2021/06/07 09:01:17;;;;;;;3.30;1.73;;;;;;;;;;4969074;28;21737;-79
2021/06/07 09:03:43;;;;;;;3.63;1.50;;;;;;;;;;4981682;28;20034;-82
2021/06/07 09:24:14;;;;;;;2.65;1.05;;;;;;;;;;5822872;23;20050;-83
2021/06/07 09:34:35;;;;;;;2.72;1.13;;;;;;;;;;6009475;23;20017;-79
2021/06/07 09:37:11;;;;;;;2.20;0.90;;;;;;;;;;4975038;28;20054;-79
2021/06/07 09:39:36;;;;;;;3.33;1.13;;;;;;;;;;4987434;28;20026;-79
2021/06/07 09:42:08;;;;;;;2.28;1.00;;;;;;;;;;5001253;28;20030;-79
2021/06/07 09:44:34;;;;;;;4.22;1.00;;;;;;;;;;4973562;28;20360;-79
2021/06/07 09:47:25;;;;;;;3.67;1.20;;;;;;;;;;4976923;28;20080;-78
2021/06/07 09:49:58;;;;;;;2.08;1.05;;;;;;;;;;4969535;28;20345;-79
2021/06/07 09:52:23;;;;;;;4.75;1.15;;;;;;;;;;4988588;28;20019;-78
2021/06/07 09:55:06;;;;;;;2.28;1.00;;;;;;;;;;4995753;28;20103;-81
2021/06/07 09:57:51;;;;;;;2.50;1.15;;;;;;;;;;4997422;28;20048;-78
2021/06/07 10:00:39;;;;;;;2.90;1.00;;;;;;;;;;4979180;28;20049;-81
2021/06/07 10:03:23;;;;;;;1.70;1.00;;;;;;;;;;4991050;28;20532;-80
2021/06/07 10:05:53;;;;;;;2.17;0.95;;;;;;;;;;4973028;28;20141;-81
2021/06/07 10:08:18;;;;;;;3.03;0.93;;;;;;;;;;4974843;28;20438;-81
2021/06/07 10:10:44;;;;;;;3.60;1.05;;;;;;;;;;4954788;28;20014;-80
2021/06/07 10:13:11;;;;;;;3.15;0.90;;;;;;;;;;4988161;28;20026;-80
2021/06/07 10:15:41;;;;;;;7.28;1.15;;;;;;;;;;4971192;28;20022;-80
2021/06/07 10:18:08;;;;;;;5.28;0.95;;;;;;;;;;4973578;28;20014;-80
2021/06/07 10:22:59;;;;;;;2.90;0.90;;;;;;;;;;4989234;28;20022;-81
2021/06/07 10:25:24;;;;;;;2.60;1.05;;;;;;;;;;4988173;28;20041;-80
2021/06/07 10:27:50;;;;;;;2.03;1.05;;;;;;;;;;4974597;28;20050;-81
2021/06/07 10:30:17;;;;;;;1.88;1.00;;;;;;;;;;4974088;28;20015;-80
2021/06/07 10:32:42;;;;;;;5.75;1.30;;;;;;;;;;4986657;28;20030;-80
2021/06/07 10:35:09;;;;;;;2.15;1.13;;;;;;;;;;4972444;28;20062;-81
2021/06/07 10:37:34;;;;;;;4.18;1.33;;;;;;;;;;4987445;28;20026;-81
2021/06/07 10:40:15;;;;;;;5.28;1.60;;;;;;;;;;4969839;28;20018;-80
2021/06/07 10:43:10;;;;;;;2.25;1.13;;;;;;;;;;4987146;28;20041;-80
2021/06/07 10:45:37;;;;;;;2.13;1.30;;;;;;;;;;4943293;28;20101;-80
2021/06/07 10:48:03;;;;;;;2.63;1.08;;;;;;;;;;4986129;28;20018;-80
2021/06/07 10:50:30;;;;;;;2.13;1.10;;;;;;;;;;4986763;28;20018;-80
2021/06/07 10:53:01;;;;;;;3.53;1.10;;;;;;;;;;4975428;28;20088;-80
2021/06/07 10:55:33;;;;;;;2.65;1.20;;;;;;;;;;4980626;28;20057;-81
2021/06/07 10:57:59;;;;;;;5.32;1.10;;;;;;;;;;4992456;28;20038;-82
2021/06/07 11:00:27;;;;;;;3.58;1.02;;;;;;;;;;4982085;28;20037;-82
2021/06/07 11:02:54;;;;;;;1.60;1.00;;;;;;;;;;5005897;28;20026;-82
2021/06/07 11:05:20;;;;;;;2.28;0.98;;;;;;;;;;4996315;28;20027;-81
2021/06/07 11:08:06;;;;;;;3.45;1.00;;;;;;;;;;5001860;28;20088;-82
2021/06/07 11:10:35;;;;;;;1.38;0.95;;;;;;;;;;5002405;28;20031;-81
2021/06/07 11:13:03;;;;;;;1.23;0.90;;;;;;;;;;4985545;28;20108;-82
2021/06/07 11:15:38;;;;;;;2.53;1.08;;;;;;;;;;5003881;28;20079;-82
2021/06/07 11:18:37;;;;;;;5.90;1.00;;;;;;;;;;4982262;28;20050;-82
2021/06/07 11:21:23;;;;;;;2.35;0.90;;;;;;;;;;4956575;28;20027;-79
2021/06/07 11:23:48;;;;;;;1.63;0.70;;;;;;;;;;4999488;28;20034;-79
2021/06/07 11:26:18;;;;;;;1.35;0.90;;;;;;;;;;4996711;28;20018;-79
2021/06/07 11:29:04;;;;;;;1.83;0.88;;;;;;;;;;4996736;28;20036;-82
2021/06/07 11:31:32;;;;;;;2.85;1.20;;;;;;;;;;4995997;28;20464;-82
2021/06/07 11:34:02;;;;;;;1.52;0.70;;;;;;;;;;4983141;28;20037;-82
2021/06/07 11:36:42;;;;;;;1.40;0.80;;;;;;;;;;4985877;28;20038;-82
2021/06/07 11:39:10;;;;;;;1.08;0.75;;;;;;;;;;4986525;28;20035;-81
2021/06/07 11:41:52;;;;;;;1.45;0.90;;;;;;;;;;5001378;28;20070;-80
2021/06/07 11:44:18;;;;;;;1.73;0.90;;;;;;;;;;4981605;28;20015;-80
2021/06/07 11:46:43;;;;;;;1.17;0.90;;;;;;;;;;4995869;28;20542;-79
2021/06/07 11:49:12;;;;;;;2.63;0.80;;;;;;;;;;4983425;28;20449;-82
2021/06/07 11:51:38;;;;;;;6.00;0.90;;;;;;;;;;5001677;28;20275;-81
2021/06/07 11:54:22;;;;;;;2.33;0.70;;;;;;;;;;4986408;28;20022;-82
2021/06/07 11:56:59;;;;;;;2.28;0.70;;;;;;;;;;5002703;28;20018;-79
2021/06/07 11:59:25;;;;;;;2.53;0.82;;;;;;;;;;4983225;28;20033;-83
2021/06/07 12:01:50;;;;;;;2.08;0.70;;;;;;;;;;4999418;28;20034;-83
2021/06/07 12:04:26;;;;;;;2.92;0.90;;;;;;;;;;4981844;28;20019;-82
2021/06/07 12:07:11;;;;;;;1.27;0.80;;;;;;;;;;4986670;28;20023;-82
2021/06/07 12:09:41;;;;;;;2.85;1.00;;;;;;;;;;5002689;28;20023;-82
2021/06/07 12:12:07;;;;;;;2.40;0.90;;;;;;;;;;4996775;28;20038;-82
2021/06/07 12:14:32;;;;;;;1.42;0.70;;;;;;;;;;5003755;28;20030;-82
2021/06/07 12:17:02;;;;;;;1.57;0.73;;;;;;;;;;5001892;28;20018;-82
2021/06/07 12:19:32;;;;;;;2.00;0.80;;;;;;;;;;5001331;28;20252;-79
2021/06/07 12:21:57;;;;;;;1.63;0.90;;;;;;;;;;4980303;28;20048;-79
2021/06/07 12:24:23;;;;;;;1.90;0.90;;;;;;;;;;4962410;28;20505;-79
2021/06/07 12:29:37;;;;;;;3.80;0.90;;;;;;;;;;4999077;28;20041;-80
2021/06/07 12:32:14;;;;;;;2.53;1.05;;;;;;;;;;4987297;28;20022;-80
2021/06/07 12:34:59;;;;;;;1.13;0.88;;;;;;;;;;4987105;28;20054;-80
2021/06/07 12:37:31;;;;;;;2.05;1.15;;;;;;;;;;4996554;28;20019;-79
2021/06/07 12:40:26;;;;;;;1.90;0.82;;;;;;;;;;4998665;28;20042;-82
2021/06/07 12:42:53;;;;;;;1.95;0.80;;;;;;;;;;4970808;28;20041;-82
2021/06/07 12:45:28;;;;;;;3.10;0.90;;;;;;;;;;5011992;28;20359;-81
2021/06/07 12:47:54;;;;;;;2.20;0.80;;;;;;;;;;4990198;28;20021;-81
2021/06/07 12:50:22;;;;;;;3.30;0.93;;;;;;;;;;4986708;28;20023;-82
2021/06/07 12:52:48;;;;;;;3.35;0.93;;;;;;;;;;4990288;28;20072;-79
2021/06/07 12:55:17;;;;;;;4.13;0.85;;;;;;;;;;4985739;28;20022;-81
2021/06/07 12:57:42;;;;;;;1.30;0.88;;;;;;;;;;4985427;28;20019;-81
2021/06/07 13:00:26;;;;;;;7.82;1.25;;;;;;;;;;5005885;28;20033;-79
2021/06/07 13:02:51;;;;;;;3.13;1.20;;;;;;;;;;5003989;28;20038;-81
2021/06/07 13:05:27;;;;;;;3.40;1.13;;;;;;;;;;5004871;28;20058;-82
2021/06/07 13:08:11;;;;;;;3.05;1.10;;;;;;;;;;5009318;28;20006;-83
2021/06/07 13:10:39;;;;;;;2.10;1.17;;;;;;;;;;4985181;28;20010;-81
2021/06/07 13:13:04;;;;;;;8.93;1.42;;;;;;;;;;4985728;28;20225;-81
2021/06/07 13:15:31;;;;;;;2.70;1.25;;;;;;;;;;5004981;28;20051;-81
2021/06/07 13:18:06;;;;;;;2.78;1.13;;;;;;;;;;4965237;28;20085;-81
2021/06/07 13:20:32;;;;;;;3.88;1.60;;;;;;;;;;4999459;28;20038;-81
2021/06/07 13:22:57;;;;;;;2.88;1.30;;;;;;;;;;5001843;28;20030;-81
2021/06/07 13:25:27;;;;;;;2.47;1.35;;;;;;;;;;5001274;28;20068;-82
2021/06/07 13:27:54;;;;;;;4.50;1.80;;;;;;;;;;5000642;28;20033;-81
2021/06/07 13:30:23;;;;;;;4.28;1.73;;;;;;;;;;4983091;28;20026;-81
2021/06/07 13:32:48;;;;;;;3.80;1.90;;;;;;;;;;4998399;28;20030;-81
2021/06/07 13:35:17;;;;;;;3.38;1.65;;;;;;;;;;4968207;28;20091;-81
2021/06/07 13:37:46;;;;;;;4.28;1.60;;;;;;;;;;5000991;28;20022;-81
2021/06/07 13:40:18;;;;;;;4.88;1.88;;;;;;;;;;4985305;28;20026;-81
2021/06/07 13:42:47;;;;;;;5.55;2.00;;;;;;;;;;4985536;28;20088;-82
2021/06/07 13:45:13;;;;;;;5.75;1.90;;;;;;;;;;4992935;28;20741;-82
2021/06/07 13:47:40;;;;;;;6.22;1.90;;;;;;;;;;4995527;28;20011;-82
2021/06/07 13:50:10;;;;;;;6.32;2.20;;;;;;;;;;4985784;28;20052;-81
2021/06/07 13:53:05;;;;;;;4.38;2.38;;;;;;;;;;4982661;28;20019;-81
2021/06/07 13:55:37;;;;;;;5.03;2.65;;;;;;;;;;4995346;28;20042;-83
2021/06/07 14:00:48;;;;;;;4.75;2.42;;;;;;;;;;5286498;23;20295;-82
2021/06/07 14:03:20;;;;;;;5.15;2.25;;;;;;;;;;4992397;28;20023;-80
2021/06/07 14:05:47;;;;;;;5.05;2.25;;;;;;;;;;4970583;28;20599;-79
2021/06/07 14:08:17;;;;;;;4.18;1.98;;;;;;;;;;4988604;28;20042;-83
2021/06/07 14:10:42;;;;;;;4.25;2.45;;;;;;;;;;4989964;28;20050;-82
2021/06/07 14:13:08;;;;;;;13.05;2.80;;;;;;;;;;4994392;28;20009;-82
2021/06/07 14:18:03;;;;;;;8.13;2.42;;;;;;;;;;5010113;28;20098;-81
2021/06/07 14:20:28;;;;;;;6.80;2.08;;;;;;;;;;4989232;28;20029;-82
2021/06/07 14:25:39;;;;;;;4.43;1.85;;;;;;;;;;5007781;28;20041;-82
2021/06/07 14:28:06;;;;;;;4.28;1.77;;;;;;;;;;4980499;28;20069;-83
2021/06/07 14:30:31;;;;;;;7.80;2.42;;;;;;;;;;5001981;28;20146;-81
2021/06/07 14:32:57;;;;;;;5.45;1.80;;;;;;;;;;5006468;28;20034;-81
2021/06/07 14:35:29;;;;;;;8.27;1.88;;;;;;;;;;4979607;28;20041;-81
2021/06/07 14:37:54;;;;;;;4.93;1.70;;;;;;;;;;4998962;28;20015;-80
2021/06/07 14:40:19;;;;;;;4.10;1.83;;;;;;;;;;4975541;28;20029;-81
2021/06/07 14:42:44;;;;;;;2.58;1.90;;;;;;;;;;4977139;28;20019;-81
2021/06/07 14:45:10;;;;;;;6.35;1.83;;;;;;;;;;4988419;28;20033;-80
2021/06/07 14:47:38;;;;;;;4.60;1.73;;;;;;;;;;4971026;28;20026;-80
2021/06/07 14:50:04;;;;;;;4.65;1.48;;;;;;;;;;4991488;28;21740;-81
2021/06/07 14:52:29;;;;;;;3.58;1.60;;;;;;;;;;4980701;28;20089;-81
2021/06/07 14:54:54;;;;;;;5.00;1.60;;;;;;;;;;4974821;28;20041;-81
2021/06/07 14:57:20;;;;;;;8.87;2.77;;;;;;;;;;4993018;28;20458;-81
2021/06/07 14:59:45;;;;;;;3.80;1.80;;;;;;;;;;4961220;28;20610;-82
2021/06/07 15:02:10;;;;;;;4.47;1.77;;;;;;;;;;4997113;28;20018;-82
2021/06/07 15:12:21;;;;;;;7.32;1.95;;;;;;;;;;5168608;23;19929;-80
2021/06/07 15:14:46;;;;;;;3.35;1.60;;;;;;;;;;5003308;28;20027;-81
2021/06/07 15:17:12;;;;;;;3.45;1.30;;;;;;;;;;5004238;28;20066;-82
2021/06/07 15:56:07;;;;;;;6.40;1.65;;;;;;;;;;5009410;28;20102;-81
2021/06/07 16:01:06;;;;;;;4.63;1.67;;;;;;;;;;5005535;28;20042;-81